sensor_id;sensor_type;location;lat;lon;timestamp;P1;durP1;ratioP1;P2;durP2;ratioP2
11090;SDS011;5599;52.210;21.046;2024-01-10T00:01:37;68.30;;;35.43;;
11090;SDS011;5599;52.210;21.046;2024-01-10T00:04:07;64.60;;;32.07;;
11090;SDS011;5599;52.210;21.046;2024-01-10T00:06:36;63.37;;;31.60;;
11090;SDS011;5599;52.210;21.046;2024-01-10T00:09:05;61.40;;;31.60;;
11090;SDS011;5599;52.210;21.046;2024-01-10T00:11:36;59.90;;;32.13;;
11090;SDS011;5599;52.210;21.046;2024-01-10T00:14:05;67.37;;;32.40;;
11090;SDS011;5599;52.210;21.046;2024-01-10T00:16:34;59.20;;;30.73;;
11090;SDS011;5599;52.210;21.046;2024-01-10T00:19:03;63.20;;;32.77;;
11090;SDS011;5599;52.210;21.046;2024-01-10T00:21:33;61.20;;;31.20;;
11090;SDS011;5599;52.210;21.046;2024-01-10T00:24:03;58.07;;;31.90;;
11090;SDS011;5599;52.210;21.046;2024-01-10T00:26:32;55.77;;;30.70;;
11090;SDS011;5599;52.210;21.046;2024-01-10T00:29:03;60.03;;;32.23;;
11090;SDS011;5599;52.210;21.046;2024-01-10T00:31:32;59.60;;;31.00;;
11090;SDS011;5599;52.210;21.046;2024-01-10T00:34:01;55.23;;;28.63;;
11090;SDS011;5599;52.210;21.046;2024-01-10T00:36:31;60.17;;;31.33;;
11090;SDS011;5599;52.210;21.046;2024-01-10T00:39:00;61.43;;;31.83;;
11090;SDS011;5599;52.210;21.046;2024-01-10T00:41:29;51.90;;;29.37;;
11090;SDS011;5599;52.210;21.046;2024-01-10T00:43:58;53.73;;;29.97;;
11090;SDS011;5599;52.210;21.046;2024-01-10T00:46:29;56.63;;;30.30;;
11090;SDS011;5599;52.210;21.046;2024-01-10T00:48:58;55.73;;;28.30;;
11090;SDS011;5599;52.210;21.046;2024-01-10T00:51:28;55.23;;;28.60;;
11090;SDS011;5599;52.210;21.046;2024-01-10T00:53:58;55.33;;;29.70;;
11090;SDS011;5599;52.210;21.046;2024-01-10T00:56:29;53.67;;;27.83;;
11090;SDS011;5599;52.210;21.046;2024-01-10T00:58:59;55.30;;;29.27;;
11090;SDS011;5599;52.210;21.046;2024-01-10T01:01:32;55.27;;;29.00;;
11090;SDS011;5599;52.210;21.046;2024-01-10T01:04:03;49.37;;;27.80;;
11090;SDS011;5599;52.210;21.046;2024-01-10T01:06:34;55.37;;;29.73;;
11090;SDS011;5599;52.210;21.046;2024-01-10T01:09:05;51.00;;;27.47;;
11090;SDS011;5599;52.210;21.046;2024-01-10T01:11:36;56.00;;;30.20;;
11090;SDS011;5599;52.210;21.046;2024-01-10T01:14:06;63.70;;;30.67;;
11090;SDS011;5599;52.210;21.046;2024-01-10T01:16:41;58.30;;;30.83;;
11090;SDS011;5599;52.210;21.046;2024-01-10T01:19:11;56.73;;;29.37;;
11090;SDS011;5599;52.210;21.046;2024-01-10T01:21:42;54.60;;;28.90;;
11090;SDS011;5599;52.210;21.046;2024-01-10T01:24:13;55.07;;;30.33;;
11090;SDS011;5599;52.210;21.046;2024-01-10T01:26:43;58.63;;;31.37;;
11090;SDS011;5599;52.210;21.046;2024-01-10T01:29:12;60.13;;;32.33;;
11090;SDS011;5599;52.210;21.046;2024-01-10T01:31:42;57.23;;;31.70;;
11090;SDS011;5599;52.210;21.046;2024-01-10T01:34:12;58.77;;;32.03;;
11090;SDS011;5599;52.210;21.046;2024-01-10T01:36:42;67.27;;;33.33;;
11090;SDS011;5599;52.210;21.046;2024-01-10T01:39:13;62.13;;;33.73;;
11090;SDS011;5599;52.210;21.046;2024-01-10T01:41:44;66.53;;;34.67;;
11090;SDS011;5599;52.210;21.046;2024-01-10T01:44:15;69.43;;;35.17;;
11090;SDS011;5599;52.210;21.046;2024-01-10T01:46:48;68.70;;;35.00;;
11090;SDS011;5599;52.210;21.046;2024-01-10T01:49:19;70.07;;;35.47;;
11090;SDS011;5599;52.210;21.046;2024-01-10T01:51:49;65.97;;;34.17;;
11090;SDS011;5599;52.210;21.046;2024-01-10T01:54:20;68.07;;;34.93;;
11090;SDS011;5599;52.210;21.046;2024-01-10T01:56:52;64.33;;;34.93;;
11090;SDS011;5599;52.210;21.046;2024-01-10T01:59:23;68.23;;;35.20;;
11090;SDS011;5599;52.210;21.046;2024-01-10T02:01:56;64.13;;;35.03;;
11090;SDS011;5599;52.210;21.046;2024-01-10T02:04:30;67.90;;;34.70;;
11090;SDS011;5599;52.210;21.046;2024-01-10T02:07:02;68.93;;;35.20;;
11090;SDS011;5599;52.210;21.046;2024-01-10T02:09:33;61.40;;;32.83;;
11090;SDS011;5599;52.210;21.046;2024-01-10T02:12:04;71.27;;;33.93;;
11090;SDS011;5599;52.210;21.046;2024-01-10T02:14:35;80.20;;;35.73;;
11090;SDS011;5599;52.210;21.046;2024-01-10T02:17:06;63.90;;;31.40;;
11090;SDS011;5599;52.210;21.046;2024-01-10T02:19:35;65.40;;;34.10;;
11090;SDS011;5599;52.210;21.046;2024-01-10T02:22:04;64.63;;;34.07;;
11090;SDS011;5599;52.210;21.046;2024-01-10T02:24:33;68.90;;;33.70;;
11090;SDS011;5599;52.210;21.046;2024-01-10T02:27:04;59.13;;;32.40;;
11090;SDS011;5599;52.210;21.046;2024-01-10T02:29:34;62.17;;;33.47;;
11090;SDS011;5599;52.210;21.046;2024-01-10T02:32:03;62.27;;;33.63;;
11090;SDS011;5599;52.210;21.046;2024-01-10T02:34:34;60.63;;;31.70;;
11090;SDS011;5599;52.210;21.046;2024-01-10T02:37:03;62.60;;;33.57;;
11090;SDS011;5599;52.210;21.046;2024-01-10T02:39:32;59.37;;;32.33;;
11090;SDS011;5599;52.210;21.046;2024-01-10T02:42:01;58.40;;;32.23;;
11090;SDS011;5599;52.210;21.046;2024-01-10T02:44:32;57.97;;;31.43;;
11090;SDS011;5599;52.210;21.046;2024-01-10T02:47:01;64.97;;;32.27;;
11090;SDS011;5599;52.210;21.046;2024-01-10T02:49:31;67.17;;;33.73;;
11090;SDS011;5599;52.210;21.046;2024-01-10T02:52:00;64.53;;;31.47;;
11090;SDS011;5599;52.210;21.046;2024-01-10T02:54:30;60.20;;;33.10;;
11090;SDS011;5599;52.210;21.046;2024-01-10T02:56:59;63.07;;;32.13;;
11090;SDS011;5599;52.210;21.046;2024-01-10T02:59:30;62.53;;;33.53;;
11090;SDS011;5599;52.210;21.046;2024-01-10T03:01:59;58.83;;;32.20;;
11090;SDS011;5599;52.210;21.046;2024-01-10T03:04:28;62.77;;;31.70;;
11090;SDS011;5599;52.210;21.046;2024-01-10T03:06:57;67.37;;;34.40;;
11090;SDS011;5599;52.210;21.046;2024-01-10T03:09:26;60.80;;;32.60;;
11090;SDS011;5599;52.210;21.046;2024-01-10T03:11:55;59.33;;;33.97;;
11090;SDS011;5599;52.210;21.046;2024-01-10T03:14:24;64.90;;;34.33;;
11090;SDS011;5599;52.210;21.046;2024-01-10T03:16:55;66.37;;;35.03;;
11090;SDS011;5599;52.210;21.046;2024-01-10T03:19:24;69.70;;;34.23;;
11090;SDS011;5599;52.210;21.046;2024-01-10T03:21:53;70.67;;;36.17;;
11090;SDS011;5599;52.210;21.046;2024-01-10T03:24:22;61.87;;;35.77;;
11090;SDS011;5599;52.210;21.046;2024-01-10T03:26:54;65.33;;;34.67;;
11090;SDS011;5599;52.210;21.046;2024-01-10T03:29:23;63.67;;;35.13;;
11090;SDS011;5599;52.210;21.046;2024-01-10T03:31:52;66.43;;;35.50;;
11090;SDS011;5599;52.210;21.046;2024-01-10T03:34:22;59.13;;;33.87;;
11090;SDS011;5599;52.210;21.046;2024-01-10T03:36:51;64.93;;;34.50;;
11090;SDS011;5599;52.210;21.046;2024-01-10T03:39:20;60.43;;;35.77;;
11090;SDS011;5599;52.210;21.046;2024-01-10T03:41:49;65.07;;;36.10;;
11090;SDS011;5599;52.210;21.046;2024-01-10T03:44:18;70.60;;;37.17;;
11090;SDS011;5599;52.210;21.046;2024-01-10T03:46:47;64.50;;;37.37;;
11090;SDS011;5599;52.210;21.046;2024-01-10T03:49:16;60.97;;;36.33;;
11090;SDS011;5599;52.210;21.046;2024-01-10T03:51:47;67.03;;;36.10;;
11090;SDS011;5599;52.210;21.046;2024-01-10T03:54:16;66.70;;;36.17;;
11090;SDS011;5599;52.210;21.046;2024-01-10T03:56:45;65.43;;;36.17;;
11090;SDS011;5599;52.210;21.046;2024-01-10T03:59:14;67.93;;;35.73;;
11090;SDS011;5599;52.210;21.046;2024-01-10T04:01:43;72.30;;;38.07;;
11090;SDS011;5599;52.210;21.046;2024-01-10T04:04:12;67.50;;;35.87;;
11090;SDS011;5599;52.210;21.046;2024-01-10T04:06:41;67.03;;;34.20;;
11090;SDS011;5599;52.210;21.046;2024-01-10T04:09:12;63.53;;;34.53;;
11090;SDS011;5599;52.210;21.046;2024-01-10T04:11:41;60.67;;;34.13;;
11090;SDS011;5599;52.210;21.046;2024-01-10T04:14:10;71.93;;;35.50;;
11090;SDS011;5599;52.210;21.046;2024-01-10T04:16:39;64.27;;;34.77;;
11090;SDS011;5599;52.210;21.046;2024-01-10T04:19:08;64.30;;;34.17;;
11090;SDS011;5599;52.210;21.046;2024-01-10T04:21:37;66.40;;;34.67;;
11090;SDS011;5599;52.210;21.046;2024-01-10T04:24:06;64.70;;;33.50;;
11090;SDS011;5599;52.210;21.046;2024-01-10T04:26:37;66.93;;;34.83;;
11090;SDS011;5599;52.210;21.046;2024-01-10T04:29:06;65.73;;;34.33;;
11090;SDS011;5599;52.210;21.046;2024-01-10T04:31:35;58.27;;;32.67;;
11090;SDS011;5599;52.210;21.046;2024-01-10T04:34:04;66.67;;;34.37;;
11090;SDS011;5599;52.210;21.046;2024-01-10T04:36:34;56.67;;;32.97;;
11090;SDS011;5599;52.210;21.046;2024-01-10T04:39:03;60.00;;;33.40;;
11090;SDS011;5599;52.210;21.046;2024-01-10T04:41:32;64.50;;;35.90;;
11090;SDS011;5599;52.210;21.046;2024-01-10T04:44:02;63.93;;;34.27;;
11090;SDS011;5599;52.210;21.046;2024-01-10T04:46:32;61.10;;;33.23;;
11090;SDS011;5599;52.210;21.046;2024-01-10T04:49:01;61.47;;;34.20;;
11090;SDS011;5599;52.210;21.046;2024-01-10T04:51:31;65.93;;;35.33;;
11090;SDS011;5599;52.210;21.046;2024-01-10T04:54:00;62.67;;;34.00;;
11090;SDS011;5599;52.210;21.046;2024-01-10T04:56:29;62.07;;;33.33;;
11090;SDS011;5599;52.210;21.046;2024-01-10T04:58:58;63.10;;;33.20;;
11090;SDS011;5599;52.210;21.046;2024-01-10T05:01:29;62.40;;;34.23;;
11090;SDS011;5599;52.210;21.046;2024-01-10T05:03:59;62.40;;;34.07;;
11090;SDS011;5599;52.210;21.046;2024-01-10T05:06:28;67.37;;;36.37;;
11090;SDS011;5599;52.210;21.046;2024-01-10T05:08:57;63.87;;;35.40;;
11090;SDS011;5599;52.210;21.046;2024-01-10T05:11:26;66.30;;;36.40;;
11090;SDS011;5599;52.210;21.046;2024-01-10T05:13:55;65.33;;;34.03;;
11090;SDS011;5599;52.210;21.046;2024-01-10T05:16:24;64.97;;;33.47;;
11090;SDS011;5599;52.210;21.046;2024-01-10T05:18:54;67.60;;;34.47;;
11090;SDS011;5599;52.210;21.046;2024-01-10T05:21:23;68.40;;;35.27;;
11090;SDS011;5599;52.210;21.046;2024-01-10T05:23:53;69.03;;;35.03;;
11090;SDS011;5599;52.210;21.046;2024-01-10T05:26:22;64.30;;;35.37;;
11090;SDS011;5599;52.210;21.046;2024-01-10T05:28:51;67.93;;;34.83;;
11090;SDS011;5599;52.210;21.046;2024-01-10T05:31:20;64.33;;;34.23;;
11090;SDS011;5599;52.210;21.046;2024-01-10T05:33:49;68.93;;;35.23;;
11090;SDS011;5599;52.210;21.046;2024-01-10T05:36:22;70.60;;;34.47;;
11090;SDS011;5599;52.210;21.046;2024-01-10T05:38:53;65.43;;;33.83;;
11090;SDS011;5599;52.210;21.046;2024-01-10T05:41:22;64.27;;;33.77;;
11090;SDS011;5599;52.210;21.046;2024-01-10T05:43:52;68.37;;;33.83;;
11090;SDS011;5599;52.210;21.046;2024-01-10T05:46:21;65.63;;;37.07;;
11090;SDS011;5599;52.210;21.046;2024-01-10T05:48:50;74.77;;;36.13;;
11090;SDS011;5599;52.210;21.046;2024-01-10T05:51:19;66.00;;;35.50;;
11090;SDS011;5599;52.210;21.046;2024-01-10T05:53:50;69.40;;;35.03;;
11090;SDS011;5599;52.210;21.046;2024-01-10T05:56:19;71.10;;;35.67;;
11090;SDS011;5599;52.210;21.046;2024-01-10T05:58:48;62.27;;;36.90;;
11090;SDS011;5599;52.210;21.046;2024-01-10T06:01:17;69.60;;;33.13;;
11090;SDS011;5599;52.210;21.046;2024-01-10T06:03:47;66.30;;;35.83;;
11090;SDS011;5599;52.210;21.046;2024-01-10T06:06:16;70.93;;;37.63;;
11090;SDS011;5599;52.210;21.046;2024-01-10T06:08:46;75.30;;;39.93;;
11090;SDS011;5599;52.210;21.046;2024-01-10T06:11:16;68.97;;;37.23;;
11090;SDS011;5599;52.210;21.046;2024-01-10T06:13:46;75.93;;;37.57;;
11090;SDS011;5599;52.210;21.046;2024-01-10T06:16:23;65.27;;;36.97;;
11090;SDS011;5599;52.210;21.046;2024-01-10T06:18:52;69.03;;;35.57;;
11090;SDS011;5599;52.210;21.046;2024-01-10T06:21:22;68.97;;;37.30;;
11090;SDS011;5599;52.210;21.046;2024-01-10T06:23:51;71.07;;;38.30;;
11090;SDS011;5599;52.210;21.046;2024-01-10T06:26:21;70.27;;;37.30;;
11090;SDS011;5599;52.210;21.046;2024-01-10T06:28:50;70.23;;;36.50;;
11090;SDS011;5599;52.210;21.046;2024-01-10T06:31:19;75.87;;;38.03;;
11090;SDS011;5599;52.210;21.046;2024-01-10T06:33:49;67.73;;;36.50;;
11090;SDS011;5599;52.210;21.046;2024-01-10T06:36:18;72.57;;;37.93;;
11090;SDS011;5599;52.210;21.046;2024-01-10T06:38:47;71.33;;;37.73;;
11090;SDS011;5599;52.210;21.046;2024-01-10T06:41:16;72.53;;;39.33;;
11090;SDS011;5599;52.210;21.046;2024-01-10T06:43:47;71.10;;;39.80;;
11090;SDS011;5599;52.210;21.046;2024-01-10T06:46:16;81.50;;;37.73;;
11090;SDS011;5599;52.210;21.046;2024-01-10T06:48:45;72.30;;;36.80;;
11090;SDS011;5599;52.210;21.046;2024-01-10T06:51:15;69.53;;;36.97;;
11090;SDS011;5599;52.210;21.046;2024-01-10T06:53:45;73.77;;;37.77;;
11090;SDS011;5599;52.210;21.046;2024-01-10T06:56:14;72.27;;;37.63;;
11090;SDS011;5599;52.210;21.046;2024-01-10T06:58:44;72.33;;;36.40;;
11090;SDS011;5599;52.210;21.046;2024-01-10T07:01:14;72.07;;;37.40;;
11090;SDS011;5599;52.210;21.046;2024-01-10T07:03:44;77.53;;;38.30;;
11090;SDS011;5599;52.210;21.046;2024-01-10T07:06:13;68.60;;;37.30;;
11090;SDS011;5599;52.210;21.046;2024-01-10T07:08:43;71.93;;;39.27;;
11090;SDS011;5599;52.210;21.046;2024-01-10T07:11:12;67.80;;;38.47;;
11090;SDS011;5599;52.210;21.046;2024-01-10T07:13:41;80.00;;;37.83;;
11090;SDS011;5599;52.210;21.046;2024-01-10T07:16:11;71.97;;;37.07;;
11090;SDS011;5599;52.210;21.046;2024-01-10T07:18:43;78.17;;;38.13;;
11090;SDS011;5599;52.210;21.046;2024-01-10T07:21:14;81.17;;;39.80;;
11090;SDS011;5599;52.210;21.046;2024-01-10T07:23:44;76.23;;;38.57;;
11090;SDS011;5599;52.210;21.046;2024-01-10T07:26:13;65.97;;;39.77;;
11090;SDS011;5599;52.210;21.046;2024-01-10T07:28:43;76.73;;;39.43;;
11090;SDS011;5599;52.210;21.046;2024-01-10T07:31:13;73.83;;;40.83;;
11090;SDS011;5599;52.210;21.046;2024-01-10T07:33:44;84.70;;;45.20;;
11090;SDS011;5599;52.210;21.046;2024-01-10T07:36:14;78.80;;;44.07;;
11090;SDS011;5599;52.210;21.046;2024-01-10T07:38:43;77.23;;;41.50;;
11090;SDS011;5599;52.210;21.046;2024-01-10T07:41:13;75.10;;;40.97;;
11090;SDS011;5599;52.210;21.046;2024-01-10T07:43:42;76.57;;;40.07;;
11090;SDS011;5599;52.210;21.046;2024-01-10T07:46:11;77.13;;;40.67;;
11090;SDS011;5599;52.210;21.046;2024-01-10T07:48:42;79.63;;;39.27;;
11090;SDS011;5599;52.210;21.046;2024-01-10T07:51:14;78.80;;;38.70;;
11090;SDS011;5599;52.210;21.046;2024-01-10T07:53:47;76.50;;;38.53;;
11090;SDS011;5599;52.210;21.046;2024-01-10T07:56:16;70.53;;;38.73;;
11090;SDS011;5599;52.210;21.046;2024-01-10T07:58:47;66.40;;;37.30;;
11090;SDS011;5599;52.210;21.046;2024-01-10T08:01:16;70.27;;;38.07;;
11090;SDS011;5599;52.210;21.046;2024-01-10T08:03:47;69.87;;;38.33;;
11090;SDS011;5599;52.210;21.046;2024-01-10T08:06:17;68.33;;;37.90;;
11090;SDS011;5599;52.210;21.046;2024-01-10T08:08:57;61.97;;;36.57;;
11090;SDS011;5599;52.210;21.046;2024-01-10T08:11:26;77.80;;;37.80;;
11090;SDS011;5599;52.210;21.046;2024-01-10T08:13:56;63.17;;;35.03;;
11090;SDS011;5599;52.210;21.046;2024-01-10T08:16:25;64.27;;;36.90;;
11090;SDS011;5599;52.210;21.046;2024-01-10T08:18:56;73.70;;;38.33;;
11090;SDS011;5599;52.210;21.046;2024-01-10T08:21:26;72.32;;;42.20;;
11090;SDS011;5599;52.210;21.046;2024-01-10T08:23:55;66.20;;;38.50;;
11090;SDS011;5599;52.210;21.046;2024-01-10T08:26:25;68.90;;;38.97;;
11090;SDS011;5599;52.210;21.046;2024-01-10T08:28:55;65.23;;;39.73;;
11090;SDS011;5599;52.210;21.046;2024-01-10T08:31:24;68.40;;;38.67;;
11090;SDS011;5599;52.210;21.046;2024-01-10T08:33:55;65.83;;;38.77;;
11090;SDS011;5599;52.210;21.046;2024-01-10T08:36:25;77.30;;;40.00;;
11090;SDS011;5599;52.210;21.046;2024-01-10T08:38:54;66.97;;;36.97;;
11090;SDS011;5599;52.210;21.046;2024-01-10T08:41:23;64.60;;;37.67;;
11090;SDS011;5599;52.210;21.046;2024-01-10T08:43:52;65.03;;;38.43;;
11090;SDS011;5599;52.210;21.046;2024-01-10T08:46:22;69.20;;;39.97;;
11090;SDS011;5599;52.210;21.046;2024-01-10T08:48:51;71.63;;;40.80;;
11090;SDS011;5599;52.210;21.046;2024-01-10T08:51:22;62.17;;;37.07;;
11090;SDS011;5599;52.210;21.046;2024-01-10T08:53:51;72.90;;;39.97;;
11090;SDS011;5599;52.210;21.046;2024-01-10T08:56:21;67.80;;;39.33;;
11090;SDS011;5599;52.210;21.046;2024-01-10T08:58:51;71.03;;;40.17;;
11090;SDS011;5599;52.210;21.046;2024-01-10T09:01:20;65.87;;;38.77;;
11090;SDS011;5599;52.210;21.046;2024-01-10T09:03:50;68.40;;;37.87;;
11090;SDS011;5599;52.210;21.046;2024-01-10T09:06:19;67.80;;;37.50;;
11090;SDS011;5599;52.210;21.046;2024-01-10T09:08:51;65.50;;;38.40;;
11090;SDS011;5599;52.210;21.046;2024-01-10T09:11:20;65.73;;;37.53;;
11090;SDS011;5599;52.210;21.046;2024-01-10T09:13:50;62.83;;;37.77;;
11090;SDS011;5599;52.210;21.046;2024-01-10T09:16:19;67.20;;;38.07;;
11090;SDS011;5599;52.210;21.046;2024-01-10T09:18:48;69.97;;;40.67;;
11090;SDS011;5599;52.210;21.046;2024-01-10T09:21:21;65.70;;;38.30;;
11090;SDS011;5599;52.210;21.046;2024-01-10T09:23:51;69.40;;;40.30;;
11090;SDS011;5599;52.210;21.046;2024-01-10T09:26:21;64.13;;;39.30;;
11090;SDS011;5599;52.210;21.046;2024-01-10T09:28:50;66.07;;;39.60;;
11090;SDS011;5599;52.210;21.046;2024-01-10T09:31:19;65.67;;;38.57;;
11090;SDS011;5599;52.210;21.046;2024-01-10T09:33:48;67.70;;;40.13;;
11090;SDS011;5599;52.210;21.046;2024-01-10T09:36:18;66.80;;;39.33;;
11090;SDS011;5599;52.210;21.046;2024-01-10T09:38:47;65.00;;;39.47;;
11090;SDS011;5599;52.210;21.046;2024-01-10T09:41:18;67.03;;;38.97;;
11090;SDS011;5599;52.210;21.046;2024-01-10T09:43:47;66.93;;;40.43;;
11090;SDS011;5599;52.210;21.046;2024-01-10T09:46:17;69.63;;;39.90;;
11090;SDS011;5599;52.210;21.046;2024-01-10T09:48:46;68.93;;;38.97;;
11090;SDS011;5599;52.210;21.046;2024-01-10T09:51:21;66.70;;;41.63;;
11090;SDS011;5599;52.210;21.046;2024-01-10T09:53:51;78.10;;;42.63;;
11090;SDS011;5599;52.210;21.046;2024-01-10T09:56:24;67.37;;;42.53;;
11090;SDS011;5599;52.210;21.046;2024-01-10T09:58:53;72.70;;;40.87;;
11090;SDS011;5599;52.210;21.046;2024-01-10T10:01:25;67.60;;;40.30;;
11090;SDS011;5599;52.210;21.046;2024-01-10T10:03:55;70.63;;;41.10;;
11090;SDS011;5599;52.210;21.046;2024-01-10T10:06:25;65.87;;;39.70;;
11090;SDS011;5599;52.210;21.046;2024-01-10T10:08:55;71.83;;;43.17;;
11090;SDS011;5599;52.210;21.046;2024-01-10T10:11:25;71.07;;;40.67;;
11090;SDS011;5599;52.210;21.046;2024-01-10T10:13:55;73.37;;;40.83;;
11090;SDS011;5599;52.210;21.046;2024-01-10T10:16:25;65.87;;;41.07;;
11090;SDS011;5599;52.210;21.046;2024-01-10T10:18:54;67.13;;;39.37;;
11090;SDS011;5599;52.210;21.046;2024-01-10T10:21:25;67.20;;;38.77;;
11090;SDS011;5599;52.210;21.046;2024-01-10T10:23:58;67.73;;;40.67;;
11090;SDS011;5599;52.210;21.046;2024-01-10T10:26:31;67.17;;;39.10;;
11090;SDS011;5599;52.210;21.046;2024-01-10T10:29:02;69.07;;;40.63;;
11090;SDS011;5599;52.210;21.046;2024-01-10T10:31:32;72.97;;;41.30;;
11090;SDS011;5599;52.210;21.046;2024-01-10T10:34:02;66.60;;;40.53;;
11090;SDS011;5599;52.210;21.046;2024-01-10T10:36:54;67.30;;;40.90;;
11090;SDS011;5599;52.210;21.046;2024-01-10T10:39:24;73.40;;;39.47;;
11090;SDS011;5599;52.210;21.046;2024-01-10T10:41:55;70.37;;;40.40;;
11090;SDS011;5599;52.210;21.046;2024-01-10T10:44:26;69.50;;;41.17;;
11090;SDS011;5599;52.210;21.046;2024-01-10T10:47:01;74.17;;;39.77;;
11090;SDS011;5599;52.210;21.046;2024-01-10T10:49:40;73.87;;;41.83;;
11090;SDS011;5599;52.210;21.046;2024-01-10T10:52:15;66.70;;;38.77;;
11090;SDS011;5599;52.210;21.046;2024-01-10T10:54:47;71.50;;;38.97;;
11090;SDS011;5599;52.210;21.046;2024-01-10T10:57:19;68.40;;;40.63;;
11090;SDS011;5599;52.210;21.046;2024-01-10T10:59:48;66.13;;;39.63;;
11090;SDS011;5599;52.210;21.046;2024-01-10T11:02:20;68.37;;;39.70;;
11090;SDS011;5599;52.210;21.046;2024-01-10T11:04:57;68.50;;;38.83;;
11090;SDS011;5599;52.210;21.046;2024-01-10T11:07:28;67.07;;;38.70;;
11090;SDS011;5599;52.210;21.046;2024-01-10T11:09:57;70.23;;;39.13;;
11090;SDS011;5599;52.210;21.046;2024-01-10T11:12:34;70.57;;;41.57;;
11090;SDS011;5599;52.210;21.046;2024-01-10T11:15:33;71.93;;;41.43;;
11090;SDS011;5599;52.210;21.046;2024-01-10T11:18:19;69.17;;;40.90;;
11090;SDS011;5599;52.210;21.046;2024-01-10T11:21:06;75.17;;;41.27;;
11090;SDS011;5599;52.210;21.046;2024-01-10T11:23:47;66.13;;;37.30;;
11090;SDS011;5599;52.210;21.046;2024-01-10T11:26:19;66.07;;;41.77;;
11090;SDS011;5599;52.210;21.046;2024-01-10T11:28:50;69.73;;;40.07;;
11090;SDS011;5599;52.210;21.046;2024-01-10T11:31:26;72.93;;;41.10;;
11090;SDS011;5599;52.210;21.046;2024-01-10T11:33:57;67.77;;;39.87;;
11090;SDS011;5599;52.210;21.046;2024-01-10T11:36:27;69.87;;;41.07;;
11090;SDS011;5599;52.210;21.046;2024-01-10T11:38:57;73.63;;;43.40;;
11090;SDS011;5599;52.210;21.046;2024-01-10T11:41:30;75.17;;;43.57;;
11090;SDS011;5599;52.210;21.046;2024-01-10T11:46:56;66.03;;;40.13;;
11090;SDS011;5599;52.210;21.046;2024-01-10T11:49:26;68.53;;;39.97;;
11090;SDS011;5599;52.210;21.046;2024-01-10T11:51:56;72.07;;;40.63;;
11090;SDS011;5599;52.210;21.046;2024-01-10T11:54:43;70.10;;;39.00;;
11090;SDS011;5599;52.210;21.046;2024-01-10T11:57:14;70.10;;;39.87;;
11090;SDS011;5599;52.210;21.046;2024-01-10T11:59:49;71.43;;;40.90;;
11090;SDS011;5599;52.210;21.046;2024-01-10T12:02:20;69.20;;;40.83;;
11090;SDS011;5599;52.210;21.046;2024-01-10T12:04:51;72.73;;;41.03;;
11090;SDS011;5599;52.210;21.046;2024-01-10T12:07:21;70.53;;;42.07;;
11090;SDS011;5599;52.210;21.046;2024-01-10T12:09:51;71.23;;;39.83;;
11090;SDS011;5599;52.210;21.046;2024-01-10T12:12:22;74.53;;;42.93;;
11090;SDS011;5599;52.210;21.046;2024-01-10T12:14:52;77.57;;;42.63;;
11090;SDS011;5599;52.210;21.046;2024-01-10T12:17:22;69.60;;;41.60;;
11090;SDS011;5599;52.210;21.046;2024-01-10T12:19:55;69.17;;;43.00;;
11090;SDS011;5599;52.210;21.046;2024-01-10T12:22:24;73.17;;;42.10;;
11090;SDS011;5599;52.210;21.046;2024-01-10T12:24:54;74.83;;;42.20;;
11090;SDS011;5599;52.210;21.046;2024-01-10T12:27:23;71.37;;;42.10;;
11090;SDS011;5599;52.210;21.046;2024-01-10T12:29:56;67.77;;;39.60;;
11090;SDS011;5599;52.210;21.046;2024-01-10T12:32:25;68.27;;;43.17;;
11090;SDS011;5599;52.210;21.046;2024-01-10T12:34:59;69.70;;;41.83;;
11090;SDS011;5599;52.210;21.046;2024-01-10T12:37:30;70.67;;;40.47;;
11090;SDS011;5599;52.210;21.046;2024-01-10T12:40:00;65.63;;;40.77;;
11090;SDS011;5599;52.210;21.046;2024-01-10T12:42:36;76.40;;;43.17;;
11090;SDS011;5599;52.210;21.046;2024-01-10T12:45:13;69.43;;;40.97;;
11090;SDS011;5599;52.210;21.046;2024-01-10T12:47:49;70.17;;;40.57;;
11090;SDS011;5599;52.210;21.046;2024-01-10T12:50:21;63.87;;;39.50;;
11090;SDS011;5599;52.210;21.046;2024-01-10T12:52:52;67.90;;;38.83;;
11090;SDS011;5599;52.210;21.046;2024-01-10T12:55:25;67.03;;;38.07;;
11090;SDS011;5599;52.210;21.046;2024-01-10T12:57:55;66.43;;;38.90;;
11090;SDS011;5599;52.210;21.046;2024-01-10T13:00:35;71.97;;;37.87;;
11090;SDS011;5599;52.210;21.046;2024-01-10T13:03:04;62.90;;;37.70;;
11090;SDS011;5599;52.210;21.046;2024-01-10T13:05:34;68.70;;;39.10;;
11090;SDS011;5599;52.210;21.046;2024-01-10T13:08:05;63.90;;;38.43;;
11090;SDS011;5599;52.210;21.046;2024-01-10T13:10:35;69.23;;;41.60;;
11090;SDS011;5599;52.210;21.046;2024-01-10T13:13:05;65.53;;;38.90;;
11090;SDS011;5599;52.210;21.046;2024-01-10T13:15:36;63.40;;;38.53;;
11090;SDS011;5599;52.210;21.046;2024-01-10T13:18:05;69.00;;;40.53;;
11090;SDS011;5599;52.210;21.046;2024-01-10T13:20:37;68.07;;;39.20;;
11090;SDS011;5599;52.210;21.046;2024-01-10T13:23:06;67.70;;;39.43;;
11090;SDS011;5599;52.210;21.046;2024-01-10T13:25:36;68.93;;;39.87;;
11090;SDS011;5599;52.210;21.046;2024-01-10T13:28:05;68.93;;;40.03;;
11090;SDS011;5599;52.210;21.046;2024-01-10T13:30:36;70.83;;;41.10;;
11090;SDS011;5599;52.210;21.046;2024-01-10T13:33:08;65.10;;;38.57;;
11090;SDS011;5599;52.210;21.046;2024-01-10T13:35:38;67.97;;;41.23;;
11090;SDS011;5599;52.210;21.046;2024-01-10T13:38:07;67.03;;;40.00;;
11090;SDS011;5599;52.210;21.046;2024-01-10T13:40:37;67.43;;;39.00;;
11090;SDS011;5599;52.210;21.046;2024-01-10T13:43:06;71.57;;;41.27;;
11090;SDS011;5599;52.210;21.046;2024-01-10T13:45:37;66.23;;;38.57;;
11090;SDS011;5599;52.210;21.046;2024-01-10T13:48:07;69.33;;;39.90;;
11090;SDS011;5599;52.210;21.046;2024-01-10T13:50:37;70.10;;;40.50;;
11090;SDS011;5599;52.210;21.046;2024-01-10T13:53:06;64.07;;;39.90;;
11090;SDS011;5599;52.210;21.046;2024-01-10T13:55:36;66.97;;;40.37;;
11090;SDS011;5599;52.210;21.046;2024-01-10T13:58:05;72.83;;;41.63;;
11090;SDS011;5599;52.210;21.046;2024-01-10T14:00:35;66.03;;;40.30;;
11090;SDS011;5599;52.210;21.046;2024-01-10T14:03:10;68.07;;;39.83;;
11090;SDS011;5599;52.210;21.046;2024-01-10T14:05:40;70.17;;;40.37;;
11090;SDS011;5599;52.210;21.046;2024-01-10T14:08:10;72.97;;;43.10;;
11090;SDS011;5599;52.210;21.046;2024-01-10T14:10:39;73.23;;;42.13;;
11090;SDS011;5599;52.210;21.046;2024-01-10T14:13:09;72.77;;;41.57;;
11090;SDS011;5599;52.210;21.046;2024-01-10T14:15:40;76.87;;;41.77;;
11090;SDS011;5599;52.210;21.046;2024-01-10T14:18:09;69.10;;;40.80;;
11090;SDS011;5599;52.210;21.046;2024-01-10T14:20:38;74.97;;;43.30;;
11090;SDS011;5599;52.210;21.046;2024-01-10T14:23:08;73.17;;;41.70;;
11090;SDS011;5599;52.210;21.046;2024-01-10T14:25:38;70.77;;;41.53;;
11090;SDS011;5599;52.210;21.046;2024-01-10T14:28:07;70.27;;;41.10;;
11090;SDS011;5599;52.210;21.046;2024-01-10T14:30:37;76.20;;;42.43;;
11090;SDS011;5599;52.210;21.046;2024-01-10T14:33:08;75.23;;;42.27;;
11090;SDS011;5599;52.210;21.046;2024-01-10T14:35:39;73.97;;;42.23;;
11090;SDS011;5599;52.210;21.046;2024-01-10T14:38:09;75.97;;;40.57;;
11090;SDS011;5599;52.210;21.046;2024-01-10T14:40:38;75.80;;;42.13;;
11090;SDS011;5599;52.210;21.046;2024-01-10T14:43:08;69.03;;;41.30;;